createdAt,value
2023-03-12T00:01:34.554Z,100217.50
2023-03-12T00:04:02.674Z,100221.44
2023-03-12T00:06:29.959Z,100218.78
2023-03-12T00:08:57.533Z,100212.78
2023-03-12T00:11:24.653Z,100212.28
2023-03-12T00:13:52.961Z,100224.84
2023-03-12T00:16:20.377Z,100215.06
2023-03-12T00:18:52.441Z,100217.16
2023-03-12T00:21:20.607Z,100212.41
2023-03-12T00:23:51.270Z,100209.34
2023-03-12T00:26:19.667Z,100208.84
2023-03-12T00:28:48.097Z,100200.38
2023-03-12T00:31:18.100Z,100206.22
2023-03-12T00:33:45.772Z,100208.50
2023-03-12T00:36:12.951Z,100199.53
2023-03-12T00:38:39.781Z,100207.03
2023-03-12T00:41:06.650Z,100201.50
2023-03-12T00:43:33.527Z,100185.50
2023-03-12T00:46:00.529Z,100187.78
2023-03-12T00:48:27.490Z,100185.31
2023-03-12T00:50:54.300Z,100189.72
2023-03-12T00:53:21.415Z,100184.53
2023-03-12T00:55:48.489Z,100188.41
2023-03-12T00:58:15.249Z,100189.88
2023-03-12T01:00:42.265Z,100199.66
2023-03-12T01:03:08.957Z,100198.50
2023-03-12T01:05:37.950Z,100196.06
2023-03-12T01:08:05.554Z,100190.34
2023-03-12T01:10:32.309Z,100186.47
2023-03-12T01:12:59.438Z,100182.06
2023-03-12T01:15:26.646Z,100168.03
2023-03-12T01:17:53.388Z,100174.72
2023-03-12T01:20:20.401Z,100173.44
2023-03-12T01:22:47.139Z,100162.34
2023-03-12T01:25:14.104Z,100167.38
2023-03-12T01:27:40.769Z,100164.59
2023-03-12T01:30:08.405Z,100153.53
2023-03-12T01:32:35.478Z,100158.94
2023-03-12T01:35:02.272Z,100148.66
2023-03-12T01:37:29.090Z,100143.75
2023-03-12T01:39:55.730Z,100138.22
2023-03-12T01:42:22.734Z,100142.97
2023-03-12T01:44:50.276Z,100149.94
2023-03-12T01:47:17.059Z,100143.91
2023-03-12T01:49:45.285Z,100139.38
2023-03-12T01:52:18.738Z,100144.06
2023-03-12T01:54:58.664Z,100139.03
2023-03-12T01:57:38.240Z,100133.19
2023-03-12T02:00:13.891Z,100122.75
2023-03-12T02:02:44.227Z,100115.28
2023-03-12T02:05:43.730Z,100110.88
2023-03-12T02:08:11.362Z,100105.16
2023-03-12T02:10:38.300Z,100098.69
2023-03-12T02:13:05.947Z,100101.75
2023-03-12T02:15:34.801Z,100100.94
2023-03-12T02:18:09.606Z,100103.38
2023-03-12T02:21:18.402Z,100107.28
2023-03-12T02:45:35.682Z,100063.34
2023-03-12T02:48:03.477Z,100064.78
2023-03-12T02:50:30.354Z,100061.34
2023-03-12T02:52:57.154Z,100072.94
2023-03-12T02:55:24.049Z,100062.16
2023-03-12T02:57:50.778Z,100058.09
2023-03-12T03:00:18.323Z,100050.81
2023-03-12T03:02:49.569Z,100052.41
2023-03-12T03:05:16.699Z,100050.81
2023-03-12T03:07:43.308Z,100038.25
2023-03-12T03:10:10.660Z,100041.03
2023-03-12T03:12:37.572Z,100029.63
2023-03-12T03:15:06.406Z,100036.63
2023-03-12T03:17:33.377Z,100039.38
2023-03-12T03:20:00.343Z,100031.09
2023-03-12T03:22:27.066Z,100030.28
2023-03-12T03:24:54.742Z,100038.91
2023-03-12T03:27:21.683Z,100045.06
2023-03-12T03:32:16.308Z,100035.66
2023-03-12T03:34:43.238Z,100031.91
2023-03-12T03:37:10.081Z,100035.97
2023-03-12T03:39:36.889Z,100040.84
2023-03-12T03:42:03.925Z,100022.31
2023-03-12T03:44:32.840Z,100027.50
2023-03-12T03:47:00.472Z,100022.59
2023-03-12T03:49:27.198Z,100013.53
2023-03-12T03:51:54.097Z,100012.06
2023-03-12T03:54:29.657Z,100021.00
2023-03-12T03:56:56.620Z,100018.53
2023-03-12T03:59:23.425Z,100008.94
2023-03-12T04:01:50.233Z,100005.88
2023-03-12T04:04:17.238Z,100006.19
2023-03-12T04:06:44.236Z,100011.41
2023-03-12T04:09:11.234Z,100017.22
2023-03-12T04:11:40.313Z,100015.94
2023-03-12T04:14:08.529Z,100006.50
2023-03-12T04:16:37.789Z,99999.03
2023-03-12T04:19:05.029Z,99996.75
2023-03-12T04:21:32.064Z,99991.88
2023-03-12T04:23:58.952Z,99988.13
2023-03-12T04:26:30.156Z,100002.44
2023-03-12T04:28:57.295Z,99998.53
2023-03-12T04:31:24.416Z,99987.28
2023-03-12T04:33:51.438Z,99990.88
2023-03-12T04:36:20.970Z,99974.47
2023-03-12T04:38:49.178Z,99973.34
2023-03-12T04:41:18.052Z,99968.94
2023-03-12T04:43:56.484Z,99963.75
2023-03-12T04:46:23.448Z,99961.28
2023-03-12T04:48:50.799Z,99954.13
2023-03-12T04:51:18.057Z,99964.19
2023-03-12T04:53:45.062Z,99968.56
2023-03-12T04:56:13.273Z,99965.50
2023-03-12T04:58:41.497Z,99961.44
2023-03-12T05:01:08.378Z,99957.53
2023-03-12T05:03:35.404Z,99956.72
2023-03-12T05:06:04.000Z,99962.56
2023-03-12T05:08:30.859Z,99958.19
2023-03-12T05:10:57.422Z,99947.78
2023-03-12T05:13:25.364Z,99944.50
2023-03-12T05:15:55.808Z,99943.88
2023-03-12T05:18:22.855Z,99947.78
2023-03-12T05:21:14.772Z,99943.69
2023-03-12T05:23:43.206Z,99944.19
2023-03-12T05:26:26.023Z,99941.09
2023-03-12T05:28:59.798Z,99935.41
2023-03-12T05:31:32.958Z,99939.50
2023-03-12T05:34:01.451Z,99931.03
2023-03-12T05:36:28.503Z,99938.97
2023-03-12T05:38:56.131Z,99934.63
2023-03-12T05:41:28.269Z,99931.84
2023-03-12T05:43:59.329Z,99926.97
2023-03-12T05:46:28.511Z,99917.03
2023-03-12T05:48:55.617Z,99916.22
2023-03-12T05:51:22.706Z,99913.78
2023-03-12T05:53:50.451Z,99915.72
2023-03-12T05:56:19.387Z,99923.69
2023-03-12T05:58:48.793Z,99927.59
2023-03-12T06:01:23.410Z,99928.72
2023-03-12T06:03:51.570Z,99929.22
2023-03-12T06:06:19.317Z,99933.78
2023-03-12T06:08:46.657Z,99928.06
2023-03-12T06:11:13.937Z,99936.06
2023-03-12T06:13:41.381Z,99933.28
2023-03-12T06:16:12.678Z,99939.94
2023-03-12T06:18:39.728Z,99937.47
2023-03-12T06:21:12.411Z,99942.22
2023-03-12T06:23:40.926Z,99950.00
2023-03-12T06:26:12.112Z,99948.88
2023-03-12T06:28:39.184Z,99956.03
2023-03-12T06:31:07.228Z,99952.75
2023-03-12T06:33:34.962Z,99951.13
2023-03-12T06:36:04.433Z,99951.13
2023-03-12T06:38:31.137Z,99948.38
2023-03-12T06:41:00.417Z,99942.84
2023-03-12T06:43:29.157Z,99946.75
2023-03-12T06:45:57.242Z,99939.56
2023-03-12T06:48:25.807Z,99934.06
2023-03-12T06:50:53.111Z,99925.75
2023-03-12T06:53:20.736Z,99937.41
2023-03-12T06:55:49.976Z,99928.03
2023-03-12T06:58:17.065Z,99933.06
2023-03-12T07:00:44.065Z,99938.56
2023-03-12T07:03:10.948Z,99936.31
2023-03-12T07:05:37.820Z,99930.81
2023-03-12T07:08:05.012Z,99924.44
2023-03-12T07:10:31.916Z,99928.34
2023-03-12T07:12:58.780Z,99925.06
2023-03-12T07:15:45.198Z,99930.59
2023-03-12T07:18:12.251Z,99940.19
2023-03-12T07:20:41.996Z,99929.78
2023-03-12T07:23:09.162Z,99934.81
2023-03-12T07:25:41.427Z,99934.50
2023-03-12T07:28:09.311Z,99932.53
2023-03-12T07:30:36.859Z,99935.28
2023-03-12T07:33:06.590Z,99928.16
2023-03-12T07:35:33.940Z,99932.88
2023-03-12T07:38:01.801Z,99936.75
2023-03-12T07:40:29.221Z,99935.16
2023-03-12T07:42:56.057Z,99941.50
2023-03-12T07:45:23.085Z,99938.72
2023-03-12T07:47:50.281Z,99940.97
2023-03-12T07:50:18.577Z,99940.66
2023-03-12T07:52:46.869Z,99936.81
2023-03-12T07:55:13.975Z,99942.47
2023-03-12T07:57:41.541Z,99941.50
2023-03-12T08:00:10.901Z,99945.38
2023-03-12T08:02:40.605Z,99938.22
2023-03-12T08:05:08.133Z,99944.88
2023-03-12T08:07:35.858Z,99935.44
2023-03-12T08:10:05.684Z,99951.53
2023-03-12T08:12:32.439Z,99942.91
2023-03-12T08:14:59.216Z,99951.53
2023-03-12T08:17:26.541Z,99944.38
2023-03-12T08:19:53.159Z,99941.59
2023-03-12T08:22:19.998Z,99942.44
2023-03-12T08:24:46.856Z,99949.06
2023-03-12T08:27:14.388Z,99952.16
2023-03-12T08:29:41.458Z,99944.19
2023-03-12T08:32:10.806Z,99957.69
2023-03-12T08:34:37.813Z,99944.19
2023-03-12T08:37:04.826Z,99959.97
2023-03-12T08:39:32.275Z,99968.25
2023-03-12T08:41:59.035Z,99959.97
2023-03-12T08:44:26.787Z,99970.19
2023-03-12T08:46:53.819Z,99968.56
2023-03-12T08:49:21.351Z,99965.50
2023-03-12T08:51:48.679Z,99978.78
2023-03-12T08:54:15.375Z,99984.63
2023-03-12T08:56:43.649Z,99988.22
2023-03-12T08:59:11.267Z,99996.97
2023-03-12T09:01:39.324Z,99994.84
2023-03-12T09:04:06.960Z,99999.25
2023-03-12T09:06:35.444Z,99992.28
2023-03-12T09:09:05.674Z,100010.13
2023-03-12T09:11:34.230Z,100008.47
2023-03-12T09:14:42.449Z,100011.56
2023-03-12T09:16:51.291Z,100013.19
2023-03-12T09:19:17.888Z,100008.81
2023-03-12T09:21:44.610Z,100014.31
2023-03-12T09:24:12.042Z,100018.69
2023-03-12T09:26:38.754Z,100009.94
2023-03-12T09:29:05.606Z,100013.84
2023-03-12T09:31:32.427Z,100014.63
2023-03-12T09:33:59.132Z,100015.78
2023-03-12T09:36:26.139Z,100026.81
2023-03-12T09:38:52.936Z,100024.06
2023-03-12T09:41:28.982Z,100026.31
2023-03-12T09:44:01.771Z,100017.72
2023-03-12T09:46:36.203Z,100015.25
2023-03-12T09:49:11.434Z,100025.50
2023-03-12T09:51:43.456Z,100033.78
2023-03-12T09:54:24.787Z,100040.44
2023-03-12T09:56:53.563Z,100036.56
2023-03-12T09:59:20.301Z,100028.56
2023-03-12T10:01:58.345Z,100033.28
2023-03-12T10:04:58.097Z,100039.94
2023-03-12T10:07:50.574Z,100047.06
2023-03-12T10:10:50.049Z,100047.59
2023-03-12T10:13:42.784Z,100054.25
2023-03-12T10:16:41.333Z,100063.16
2023-03-12T10:19:13.507Z,100060.06
2023-03-12T10:21:54.987Z,100057.00
2023-03-12T10:25:00.363Z,100058.63
2023-03-12T10:27:30.019Z,100051.47
2023-03-12T10:29:58.262Z,100050.66
2023-03-12T10:32:40.683Z,100055.34
2023-03-12T10:35:18.495Z,100058.63
2023-03-12T10:37:50.420Z,100057.81
2023-03-12T10:40:30.468Z,100070.16
2023-03-12T10:42:57.774Z,100065.75
2023-03-12T10:45:45.871Z,100062.38
2023-03-12T10:48:23.773Z,100059.63
2023-03-12T10:51:16.847Z,100058.78
2023-03-12T10:53:48.514Z,100044.69
2023-03-12T10:56:18.091Z,100046.97
2023-03-12T10:58:46.015Z,100035.91
2023-03-12T11:01:25.746Z,100043.69
2023-03-12T11:03:54.043Z,100040.28
2023-03-12T11:06:26.314Z,100046.63
2023-03-12T11:09:16.071Z,100037.53
2023-03-12T11:11:45.317Z,100036.72
2023-03-12T11:14:24.567Z,100032.81
2023-03-12T11:16:52.580Z,100029.25
2023-03-12T11:19:33.114Z,100036.41
2023-03-12T11:22:05.625Z,100048.75
2023-03-12T11:24:32.422Z,100053.84
2023-03-12T11:27:08.182Z,100052.25
2023-03-12T11:29:40.390Z,100058.44
2023-03-12T11:32:31.198Z,100055.09
2023-03-12T11:35:16.707Z,100057.59
2023-03-12T11:38:08.389Z,100056.84
2023-03-12T11:40:56.652Z,100061.25
2023-03-12T11:43:43.767Z,100055.13
2023-03-12T11:46:17.302Z,100050.13
2023-03-12T11:49:04.595Z,100048.84
2023-03-12T11:51:43.468Z,100044.00
2023-03-12T11:54:28.712Z,100050.84
2023-03-12T11:57:30.687Z,100049.06
2023-03-12T12:00:18.130Z,100045.13
2023-03-12T12:02:50.620Z,100035.34
2023-03-12T12:05:40.970Z,100034.03
2023-03-12T12:08:29.111Z,100040.53
2023-03-12T12:11:21.603Z,100046.19
2023-03-12T12:14:04.141Z,100045.75
2023-03-12T12:16:42.593Z,100045.94
2023-03-12T12:19:20.525Z,100043.00
2023-03-12T12:22:01.966Z,100037.44
2023-03-12T12:24:53.463Z,100035.69
2023-03-12T12:27:29.093Z,100036.31
2023-03-12T12:30:18.403Z,100033.19
2023-03-12T12:33:02.159Z,100040.53
2023-03-12T12:35:36.996Z,100042.34
2023-03-12T12:38:06.898Z,100032.22
2023-03-12T12:40:41.002Z,100033.69
2023-03-12T12:43:30.425Z,100032.72
2023-03-12T12:46:02.193Z,100029.09
2023-03-12T12:48:37.970Z,100021.44
2023-03-12T12:51:09.025Z,100014.25
2023-03-12T12:53:41.807Z,100012.91
2023-03-12T12:56:30.061Z,100012.13
2023-03-12T12:59:28.363Z,100016.69
2023-03-12T13:01:57.133Z,100013.72
2023-03-12T13:04:39.520Z,100017.94
2023-03-12T13:07:12.266Z,100013.84
2023-03-12T13:09:44.584Z,100017.59
2023-03-12T13:12:13.414Z,99996.09
2023-03-12T13:14:43.310Z,100002.44
2023-03-12T13:17:35.836Z,100017.59
2023-03-12T13:20:12.039Z,100016.31
2023-03-12T13:22:49.635Z,100007.31
2023-03-12T13:25:22.267Z,100013.81
2023-03-12T13:27:58.582Z,100004.81
2023-03-12T13:30:34.436Z,100001.22
2023-03-12T13:33:03.958Z,100001.72
2023-03-12T13:35:36.917Z,100000.56
2023-03-12T13:38:06.749Z,99989.16
2023-03-12T13:40:53.506Z,99994.81
2023-03-12T13:43:42.693Z,99992.56
2023-03-12T13:46:15.293Z,99988.00
2023-03-12T13:48:47.756Z,99977.53
2023-03-12T13:51:20.904Z,99979.63
2023-03-12T13:53:52.818Z,99981.69
2023-03-12T13:56:25.136Z,99974.16
2023-03-12T13:59:01.770Z,99975.50
2023-03-12T14:01:37.752Z,99970.91
2023-03-12T14:04:12.209Z,99964.94
2023-03-12T14:07:43.752Z,99960.47
2023-03-12T14:10:25.343Z,99969.53
2023-03-12T14:13:07.392Z,99971.16
2023-03-12T14:15:59.515Z,99975.50
2023-03-12T14:18:30.744Z,99972.38
2023-03-12T14:21:06.930Z,99975.88
2023-03-12T14:23:40.032Z,99985.03
2023-03-12T14:26:09.559Z,99981.47
2023-03-12T14:28:40.255Z,99987.28
2023-03-12T14:31:17.961Z,99982.81
2023-03-12T14:33:58.804Z,99988.91
2023-03-12T14:36:37.397Z,99996.56
2023-03-12T14:39:21.978Z,100001.97
2023-03-12T14:41:57.474Z,100010.81
2023-03-12T14:44:26.444Z,100017.31
2023-03-12T14:47:11.213Z,100010.16
2023-03-12T14:49:46.160Z,100017.31
2023-03-12T14:52:20.674Z,99997.41
2023-03-12T14:55:12.377Z,100005.28
2023-03-12T14:57:39.313Z,100013.06
2023-03-12T15:00:14.419Z,100010.44
2023-03-12T15:02:42.379Z,100022.22
2023-03-12T15:05:18.500Z,100029.25
2023-03-12T15:07:46.291Z,100015.03
2023-03-12T15:10:25.252Z,100021.53
2023-03-12T15:12:56.999Z,100018.25
2023-03-12T15:15:32.225Z,100025.75
2023-03-12T15:17:59.413Z,100020.19
2023-03-12T15:20:26.973Z,100027.13
2023-03-12T15:22:54.136Z,100018.50
2023-03-12T15:25:34.230Z,100012.59
2023-03-12T15:28:05.012Z,100022.91
2023-03-12T15:30:33.420Z,100019.78
2023-03-12T15:33:11.934Z,100021.88
2023-03-12T15:35:58.031Z,100014.38
2023-03-12T15:38:25.706Z,100022.34
2023-03-12T15:40:56.069Z,100017.47
2023-03-12T15:43:25.151Z,100029.53
2023-03-12T15:46:00.879Z,100022.47
2023-03-12T15:48:32.015Z,100020.06
2023-03-12T15:50:59.725Z,100025.88
2023-03-12T15:53:31.070Z,100033.38
2023-03-12T15:56:22.115Z,100026.41
2023-03-12T15:59:00.918Z,100021.81
2023-03-12T16:01:28.264Z,100019.38
2023-03-12T16:03:55.205Z,100016.41
2023-03-12T16:06:25.428Z,100015.91
2023-03-12T16:08:56.370Z,100010.84
2023-03-12T16:11:29.098Z,100013.75
2023-03-12T16:14:10.536Z,100015.03
2023-03-12T16:16:37.625Z,100012.72
2023-03-12T16:19:11.294Z,100007.03
2023-03-12T16:21:38.055Z,100006.38
2023-03-12T16:24:04.996Z,100006.16
2023-03-12T16:26:35.233Z,100006.81
2023-03-12T16:29:02.194Z,100003.47
2023-03-12T16:31:29.190Z,100011.81
2023-03-12T16:33:55.994Z,100016.34
2023-03-12T16:36:22.827Z,100016.00
2023-03-12T16:38:49.831Z,100007.91
2023-03-12T16:41:18.555Z,100019.63
2023-03-12T16:43:49.975Z,100016.38
2023-03-12T16:46:20.483Z,100018.91
2023-03-12T16:48:53.619Z,100014.28
2023-03-12T16:51:20.800Z,100007.91
2023-03-12T16:53:58.508Z,100004.44
2023-03-12T16:56:32.453Z,100002.94
2023-03-12T16:59:03.256Z,100005.72
2023-03-12T17:01:30.577Z,100005.72
2023-03-12T17:03:57.714Z,100016.84
2023-03-12T17:06:26.543Z,100010.59
2023-03-12T17:08:54.406Z,100021.97
2023-03-12T17:11:28.053Z,100015.59
2023-03-12T17:13:58.730Z,100014.94
2023-03-12T17:16:26.223Z,100020.78
2023-03-12T17:18:53.267Z,100024.81
2023-03-12T17:21:20.912Z,100026.56
2023-03-12T17:23:50.462Z,100018.59
2023-03-12T17:26:18.701Z,100024.13
2023-03-12T17:28:45.451Z,100018.78
2023-03-12T17:31:12.271Z,100014.75
2023-03-12T17:33:39.407Z,100015.56
2023-03-12T17:36:08.539Z,100025.06
2023-03-12T17:38:35.734Z,100029.69
2023-03-12T17:41:04.680Z,100021.47
2023-03-12T17:43:34.936Z,100026.00
2023-03-12T17:46:09.840Z,100014.44
2023-03-12T17:48:36.595Z,100011.97
2023-03-12T17:51:08.054Z,100019.50
2023-03-12T17:53:35.048Z,100017.69
2023-03-12T17:56:02.296Z,100020.25
2023-03-12T17:58:29.170Z,100027.66
2023-03-12T18:00:59.035Z,100029.50
2023-03-12T18:03:25.938Z,100036.69
2023-03-12T18:05:52.615Z,100032.78
2023-03-12T18:08:19.272Z,100030.31
2023-03-12T18:10:46.040Z,100033.91
2023-03-12T18:13:12.632Z,100039.34
2023-03-12T18:15:39.660Z,100034.38
2023-03-12T18:18:06.652Z,100029.16
2023-03-12T18:20:39.077Z,100030.41
2023-03-12T18:23:06.574Z,100035.97
2023-03-12T18:25:33.655Z,100027.19
2023-03-12T18:28:00.513Z,100027.31
2023-03-12T18:30:28.363Z,100017.69
2023-03-12T18:32:55.321Z,100018.84
2023-03-12T18:35:22.938Z,100017.69
2023-03-12T18:37:51.888Z,100021.63
2023-03-12T18:40:18.621Z,100010.03
2023-03-12T18:42:45.507Z,100008.88
2023-03-12T18:45:12.599Z,100010.03
2023-03-12T18:47:39.612Z,100006.09
2023-03-12T18:50:08.810Z,100013.72
2023-03-12T18:52:35.708Z,100002.63
2023-03-12T18:55:02.756Z,99994.63
2023-03-12T18:57:29.365Z,99999.38
2023-03-12T18:59:56.495Z,99994.75
2023-03-12T19:02:23.820Z,99992.19
2023-03-12T19:04:56.157Z,99990.22
2023-03-12T19:07:23.156Z,99990.59
2023-03-12T19:09:50.428Z,99988.25
2023-03-12T19:12:17.240Z,99979.47
2023-03-12T19:14:44.080Z,99977.94
2023-03-12T19:17:10.701Z,99978.41
2023-03-12T19:19:37.490Z,99980.38
2023-03-12T19:22:04.754Z,99976.56
2023-03-12T19:24:31.719Z,99975.75
2023-03-12T19:26:58.520Z,99968.00
2023-03-12T19:29:25.249Z,99964.16
2023-03-12T19:31:52.110Z,99959.41
2023-03-12T19:34:19.963Z,99953.47
2023-03-12T19:36:46.626Z,99947.22
2023-03-12T19:39:21.066Z,99949.78
2023-03-12T19:41:48.925Z,99947.34
2023-03-12T19:44:15.753Z,99940.63
2023-03-12T19:46:43.269Z,99941.44
2023-03-12T19:49:10.346Z,99932.16
2023-03-12T19:51:40.348Z,99937.72
2023-03-12T19:54:07.740Z,99939.81
2023-03-12T19:56:34.674Z,99936.59
2023-03-12T19:59:01.428Z,99924.75
2023-03-12T20:01:28.096Z,99926.84
2023-03-12T20:03:54.837Z,99924.06
2023-03-12T20:06:21.670Z,99928.25
2023-03-12T20:08:49.201Z,99916.91
2023-03-12T20:11:16.124Z,99921.53
2023-03-12T20:13:42.899Z,99912.75
2023-03-12T20:16:12.527Z,99911.09
2023-03-12T20:18:39.471Z,99911.09
2023-03-12T20:21:06.295Z,99915.53
2023-03-12T20:23:33.177Z,99906.34
2023-03-12T20:26:00.107Z,99897.91
2023-03-12T20:28:27.032Z,99888.03
2023-03-12T20:30:53.765Z,99884.19
2023-03-12T20:33:20.516Z,99884.78
2023-03-12T20:35:50.160Z,99879.78
2023-03-12T20:38:17.158Z,99864.63
2023-03-12T20:40:46.799Z,99864.03
2023-03-12T20:43:13.591Z,99870.97
2023-03-12T20:45:40.593Z,99860.53
2023-03-12T20:48:07.692Z,99853.59
2023-03-12T20:50:37.530Z,99854.28
2023-03-12T20:53:04.241Z,99860.50
2023-03-12T20:55:30.943Z,99856.34
2023-03-12T20:57:57.687Z,99859.78
2023-03-12T21:00:24.392Z,99870.31
2023-03-12T21:02:51.058Z,99861.19
2023-03-12T21:05:17.876Z,99867.75
2023-03-12T21:07:44.754Z,99864.38
2023-03-12T21:10:11.984Z,99862.75
2023-03-12T21:12:39.731Z,99856.28
2023-03-12T21:15:10.808Z,99859.28
2023-03-12T21:17:39.248Z,99856.81
2023-03-12T21:20:17.332Z,99854.84
2023-03-12T21:22:44.608Z,99850.66
2023-03-12T21:25:11.752Z,99850.66
2023-03-12T21:27:49.832Z,99851.34
2023-03-12T21:30:20.737Z,99840.47
2023-03-12T21:32:47.489Z,99833.66
2023-03-12T21:35:14.162Z,99833.97
2023-03-12T21:37:40.808Z,99830.75
2023-03-12T21:40:09.056Z,99826.34
2023-03-12T21:42:35.898Z,99824.88
2023-03-12T21:45:02.654Z,99834.38
2023-03-12T21:47:29.544Z,99827.06
2023-03-12T21:49:56.451Z,99818.41
2023-03-12T21:52:23.246Z,99819.41
2023-03-12T21:54:50.302Z,99810.31
2023-03-12T21:57:17.156Z,99810.19
2023-03-12T21:59:44.010Z,99801.38
2023-03-12T22:02:16.673Z,99787.84
2023-03-12T22:04:43.333Z,99788.66
2023-03-12T22:07:10.271Z,99786.22
2023-03-12T22:09:37.130Z,99783.00
2023-03-12T22:12:04.178Z,99769.47
2023-03-12T22:14:30.862Z,99770.47
2023-03-12T22:16:57.493Z,99766.91
2023-03-12T22:19:24.426Z,99761.72
2023-03-12T22:21:51.094Z,99761.25
2023-03-12T22:24:17.732Z,99757.31
2023-03-12T22:26:46.172Z,99747.25
2023-03-12T22:29:13.161Z,99742.97
2023-03-12T22:31:41.512Z,99735.69
2023-03-12T22:34:08.919Z,99727.38
2023-03-12T22:36:37.985Z,99718.94
2023-03-12T22:39:23.230Z,99709.44
2023-03-12T22:41:53.642Z,99716.47
2023-03-12T22:44:20.456Z,99702.97
2023-03-12T22:46:47.504Z,99703.66
2023-03-12T22:49:15.462Z,99685.75
2023-03-12T22:51:42.249Z,99683.00
2023-03-12T22:54:09.057Z,99665.53
2023-03-12T22:56:35.896Z,99666.22
2023-03-12T22:59:02.642Z,99658.25
2023-03-12T23:01:29.486Z,99650.28
2023-03-12T23:03:56.298Z,99645.41
2023-03-12T23:06:25.403Z,99635.47
2023-03-12T23:08:52.763Z,99637.09
2023-03-12T23:11:20.836Z,99627.06
2023-03-12T23:13:49.800Z,99630.28
2023-03-12T23:16:22.298Z,99620.72
2023-03-12T23:18:49.314Z,99611.81
2023-03-12T23:21:19.146Z,99607.06
2023-03-12T23:23:46.397Z,99598.75
2023-03-12T23:26:22.809Z,99599.91
2023-03-12T23:28:53.199Z,99594.69
2023-03-12T23:31:20.722Z,99589.50
2023-03-12T23:33:47.651Z,99583.16
2023-03-12T23:36:19.714Z,99586.28
2023-03-12T23:38:48.376Z,99569.66
2023-03-12T23:41:20.948Z,99569.16
2023-03-12T23:43:48.578Z,99548.19
2023-03-12T23:46:16.995Z,99544.91
2023-03-12T23:48:44.286Z,99528.31
2023-03-12T23:51:10.850Z,99523.47
2023-03-12T23:53:38.929Z,99523.47
2023-03-12T23:56:09.425Z,99512.41
2023-03-12T23:58:36.573Z,99517.13
